createdAt,value
2022-11-12T00:01:22.935Z,94880.94
2022-11-12T00:06:43.251Z,94883.75
2022-11-12T00:12:03.717Z,94875.44
2022-11-12T00:17:24.100Z,94866.31
2022-11-12T00:22:44.364Z,94872.59
2022-11-12T00:28:09.208Z,94877.81
2022-11-12T00:33:29.726Z,94881.75
2022-11-12T00:38:50.174Z,94888.03
2022-11-12T00:44:10.982Z,94880.16
2022-11-12T00:49:31.561Z,94873.06
2022-11-12T00:54:52.401Z,94873.53
2022-11-12T01:00:17.044Z,94871.50
2022-11-12T01:05:37.389Z,94866.44
2022-11-12T01:11:04.551Z,94854.50
2022-11-12T01:16:27.927Z,94853.88
2022-11-12T01:21:48.529Z,94845.84
2022-11-12T01:27:09.133Z,94860.03
2022-11-12T01:32:29.654Z,94862.25
2022-11-12T01:37:50.182Z,94849.78
2022-11-12T01:43:13.923Z,94884.84
2022-11-12T01:48:58.631Z,94876.19
2022-11-12T01:54:20.499Z,94870.34
2022-11-12T01:59:44.381Z,94881.78
2022-11-12T02:05:07.433Z,94863.84
2022-11-12T02:10:27.989Z,94868.81
2022-11-12T02:15:48.070Z,94856.88
2022-11-12T02:21:09.684Z,94842.56
2022-11-12T02:26:37.126Z,94849.13
2022-11-12T02:31:57.549Z,94822.25
2022-11-12T02:37:17.949Z,94811.16
2022-11-12T02:42:38.254Z,94797.16
2022-11-12T02:47:59.233Z,94794.19
2022-11-12T02:53:19.934Z,94792.91
2022-11-12T02:58:40.128Z,94795.09
2022-11-12T03:04:01.136Z,94790.09
2022-11-12T03:09:21.434Z,94760.84
2022-11-12T03:14:42.197Z,94740.75
2022-11-12T03:20:04.638Z,94737.75
2022-11-12T03:25:26.321Z,94754.41
2022-11-12T03:30:46.866Z,94750.78
2022-11-12T03:36:07.272Z,94768.81
2022-11-12T03:41:27.663Z,94762.09
2022-11-12T03:46:48.111Z,94753.47
2022-11-12T03:52:08.539Z,94735.88
2022-11-12T03:57:28.989Z,94741.03
2022-11-12T04:02:50.464Z,94740.88
2022-11-12T04:08:37.808Z,94755.59
2022-11-12T04:13:58.097Z,94774.78
2022-11-12T04:19:37.143Z,94787.00
2022-11-12T04:25:16.685Z,94786.53
2022-11-12T04:30:37.253Z,94779.94
2022-11-12T04:35:57.660Z,94779.78
2022-11-12T04:41:36.720Z,94764.56
2022-11-12T04:46:57.077Z,94767.16
2022-11-12T04:52:17.526Z,94772.03
2022-11-12T04:57:38.276Z,94766.38
2022-11-12T05:02:58.730Z,94766.94
2022-11-12T05:08:18.953Z,94759.09
2022-11-12T05:13:39.586Z,94746.50
2022-11-12T05:19:00.375Z,94755.00
2022-11-12T05:24:40.357Z,94761.09
2022-11-12T05:30:01.349Z,94754.81
2022-11-12T05:35:22.015Z,94757.16
2022-11-12T05:40:45.050Z,94756.44
2022-11-12T05:46:05.710Z,94749.84
2022-11-12T05:51:26.489Z,94740.56
2022-11-12T05:56:47.321Z,94733.84
2022-11-12T06:02:07.771Z,94731.47
2022-11-12T06:07:28.156Z,94738.84
2022-11-12T06:12:48.388Z,94754.22
2022-11-12T06:18:08.974Z,94786.13
2022-11-12T06:23:29.427Z,94809.50
2022-11-12T06:28:50.324Z,94781.91
2022-11-12T06:34:12.563Z,94757.75
2022-11-12T06:39:33.078Z,94743.78
2022-11-12T06:44:53.696Z,94752.63
2022-11-12T06:50:13.945Z,94756.22
2022-11-12T06:55:34.165Z,94753.56
2022-11-12T07:00:54.283Z,94756.56
2022-11-12T07:06:18.681Z,94756.03
2022-11-12T07:11:39.333Z,94774.22
2022-11-12T07:17:00.085Z,94768.88
2022-11-12T07:22:20.311Z,94791.00
2022-11-12T07:27:41.036Z,94797.13
2022-11-12T07:33:01.682Z,94818.16
2022-11-12T07:38:22.109Z,94829.31
2022-11-12T07:43:45.877Z,94816.09
2022-11-12T07:49:06.434Z,94805.25
2022-11-12T07:54:26.964Z,94824.28
2022-11-12T07:59:47.763Z,94815.19
2022-11-12T08:05:14.493Z,94838.91
2022-11-12T08:10:38.507Z,94872.34
2022-11-12T08:15:59.331Z,94873.75
2022-11-12T08:21:20.433Z,94878.78
2022-11-12T08:26:41.148Z,94880.03
2022-11-12T08:32:01.633Z,94854.66
2022-11-12T08:37:21.906Z,94865.50
2022-11-12T08:42:42.302Z,94885.13
2022-11-12T08:48:05.832Z,94868.97
2022-11-12T08:53:26.401Z,94877.16
2022-11-12T08:58:47.009Z,94867.75
2022-11-12T09:04:07.568Z,94866.22
2022-11-12T09:09:28.311Z,94859.03
2022-11-12T09:14:48.951Z,94868.44
2022-11-12T09:20:09.704Z,94861.44
2022-11-12T09:25:30.340Z,94863.63
2022-11-12T09:30:52.132Z,94868.97
2022-11-12T09:36:12.787Z,94873.88
2022-11-12T09:41:42.919Z,94863.66
2022-11-12T09:47:10.012Z,94865.88
2022-11-12T09:52:31.135Z,94843.03
2022-11-12T09:57:51.560Z,94836.13
2022-11-12T10:03:25.115Z,94848.53
2022-11-12T10:09:00.551Z,94842.09
2022-11-12T10:14:44.179Z,94841.75
2022-11-12T10:20:22.566Z,94829.47
2022-11-12T10:25:45.134Z,94837.63
2022-11-12T10:31:13.924Z,94835.56
2022-11-12T10:36:36.359Z,94836.66
2022-11-12T10:42:08.787Z,94846.97
2022-11-12T10:47:33.848Z,94847.59
2022-11-12T10:53:13.022Z,94844.44
2022-11-12T10:58:33.405Z,94838.56
2022-11-12T11:03:58.033Z,94823.19
2022-11-12T11:09:21.770Z,94819.75
2022-11-12T11:14:44.684Z,94817.59
2022-11-12T11:20:11.888Z,94816.50
2022-11-12T11:25:33.782Z,94807.19
2022-11-12T11:31:03.842Z,94802.81
2022-11-12T11:36:30.550Z,94792.63
2022-11-12T11:41:59.727Z,94778.41
2022-11-12T11:48:01.713Z,94768.19
2022-11-12T11:53:42.178Z,94756.09
2022-11-12T11:59:30.616Z,94760.16
2022-11-12T12:04:57.070Z,94743.00
2022-11-12T12:10:40.185Z,94734.19
2022-11-12T12:16:09.660Z,94720.88
2022-11-12T12:21:32.179Z,94706.03
2022-11-12T12:26:58.276Z,94695.13
2022-11-12T12:32:28.936Z,94689.47
2022-11-12T12:38:16.556Z,94686.94
2022-11-12T12:43:47.583Z,94686.41
2022-11-12T12:49:13.831Z,94678.22
2022-11-12T12:54:37.320Z,94672.50
2022-11-12T13:00:31.290Z,94664.22
2022-11-12T13:06:07.242Z,94665.09
2022-11-12T13:12:06.937Z,94651.00
2022-11-12T13:17:44.463Z,94649.03
2022-11-12T13:23:09.676Z,94642.94
2022-11-12T13:28:30.421Z,94621.22
2022-11-12T13:33:50.841Z,94615.81
2022-11-12T13:39:15.608Z,94616.31
2022-11-12T13:44:36.380Z,94608.22
2022-11-12T13:50:00.503Z,94593.59
2022-11-12T13:55:22.252Z,94584.91
2022-11-12T14:00:52.033Z,94591.81
2022-11-12T14:06:19.360Z,94585.56
2022-11-12T14:11:48.616Z,94578.50
2022-11-12T14:17:32.012Z,94585.16
2022-11-12T14:22:53.863Z,94572.78
2022-11-12T14:28:36.633Z,94569.44
2022-11-12T14:33:57.237Z,94560.53
2022-11-12T14:39:18.005Z,94558.75
2022-11-12T14:44:38.492Z,94543.53
2022-11-12T14:49:58.897Z,94546.66
2022-11-12T14:55:23.462Z,94538.09
2022-11-12T15:00:45.754Z,94537.66
2022-11-12T15:06:06.393Z,94547.22
2022-11-12T15:11:36.590Z,94546.31
2022-11-12T15:16:57.264Z,94540.59
2022-11-12T15:22:22.092Z,94546.53
2022-11-12T15:27:43.448Z,94544.38
2022-11-12T15:33:13.777Z,94538.94
2022-11-12T15:38:36.086Z,94538.09
2022-11-12T15:43:57.060Z,94523.19
2022-11-12T15:49:17.561Z,94516.19
2022-11-12T15:54:41.060Z,94519.50
2022-11-12T16:00:08.786Z,94494.34
2022-11-12T16:05:29.608Z,94487.25
2022-11-12T16:10:50.440Z,94501.06
2022-11-12T16:16:12.244Z,94515.63
2022-11-12T16:21:32.516Z,94572.50
2022-11-12T16:26:53.790Z,94569.63
2022-11-12T16:32:14.759Z,94602.00
2022-11-12T16:37:38.708Z,94626.88
2022-11-12T16:42:59.437Z,94646.81
2022-11-12T16:48:22.006Z,94641.44
2022-11-12T16:53:42.631Z,94667.16
2022-11-12T16:59:04.379Z,94668.91
2022-11-12T17:04:25.170Z,94665.16
2022-11-12T17:09:45.636Z,94664.38
2022-11-12T17:15:07.258Z,94678.06
2022-11-12T17:20:27.390Z,94698.13
2022-11-12T17:25:48.183Z,94641.34
2022-11-12T17:31:14.135Z,94633.00
2022-11-12T17:36:40.641Z,94623.53
2022-11-12T17:42:04.028Z,94637.72
2022-11-12T17:47:24.593Z,94637.94
2022-11-12T17:52:44.792Z,94622.94
2022-11-12T17:58:05.325Z,94635.06
2022-11-12T18:03:26.151Z,94632.94
2022-11-12T18:08:47.610Z,94640.66
2022-11-12T18:14:09.014Z,94641.03
2022-11-12T18:19:30.808Z,94652.19
2022-11-12T18:24:52.890Z,94652.66
2022-11-12T18:30:18.961Z,94641.03
2022-11-12T18:35:39.719Z,94634.25
2022-11-12T18:41:08.812Z,94657.22
2022-11-12T18:46:29.264Z,94678.78
2022-11-12T18:51:49.520Z,94690.09
2022-11-12T18:57:10.022Z,94677.19
2022-11-12T19:02:30.672Z,94673.25
2022-11-12T19:07:53.836Z,94688.97
2022-11-12T19:13:14.451Z,94703.75
2022-11-12T19:18:34.963Z,94721.38
2022-11-12T19:23:56.318Z,94693.22
2022-11-12T19:29:16.945Z,94710.06
2022-11-12T19:34:38.106Z,94696.53
2022-11-12T19:39:58.287Z,94694.31
2022-11-12T19:45:18.356Z,94699.53
2022-11-12T19:50:38.482Z,94700.16
2022-11-12T19:56:03.524Z,94698.44
2022-11-12T20:01:24.577Z,94711.19
2022-11-12T20:06:44.937Z,94708.81
2022-11-12T20:12:06.341Z,94704.41
2022-11-12T20:17:26.439Z,94705.84
2022-11-12T20:22:47.101Z,94704.56
2022-11-12T20:28:07.686Z,94701.41
2022-11-12T20:33:28.554Z,94714.59
2022-11-12T20:38:53.584Z,94704.38
2022-11-12T20:44:14.375Z,94718.66
2022-11-12T20:49:35.035Z,94717.25
2022-11-12T20:54:55.486Z,94717.25
2022-11-12T21:00:21.393Z,94724.94
2022-11-12T21:05:44.585Z,94719.59
2022-11-12T21:11:08.101Z,94724.94
2022-11-12T21:16:28.813Z,94719.59
2022-11-12T21:21:49.178Z,94710.81
2022-11-12T21:27:11.667Z,94726.88
2022-11-12T21:32:32.328Z,94736.16
2022-11-12T21:37:52.976Z,94737.72
2022-11-12T21:43:14.432Z,94738.03
2022-11-12T21:48:35.191Z,94722.47
2022-11-12T21:53:57.886Z,94722.03
2022-11-12T21:59:18.161Z,94729.88
2022-11-12T22:04:38.802Z,94721.38
2022-11-12T22:09:59.120Z,94719.03
2022-11-12T22:15:24.190Z,94726.38
2022-11-12T22:20:56.059Z,94720.69
2022-11-12T22:26:20.800Z,94730.28
2022-11-12T22:31:41.462Z,94716.75
2022-11-12T22:37:02.190Z,94719.09
2022-11-12T22:42:22.905Z,94721.63
2022-11-12T22:47:43.223Z,94721.94
2022-11-12T22:53:03.770Z,94718.44
2022-11-12T22:58:24.201Z,94726.78
2022-11-12T23:03:45.116Z,94717.81
2022-11-12T23:09:06.094Z,94716.06
2022-11-12T23:14:26.235Z,94725.38
2022-11-12T23:19:46.490Z,94720.63
2022-11-12T23:25:07.634Z,94737.59
2022-11-12T23:30:27.952Z,94743.53
2022-11-12T23:35:48.455Z,94745.72
2022-11-12T23:41:11.569Z,94755.47
2022-11-12T23:46:31.953Z,94749.50
2022-11-12T23:51:52.311Z,94750.78
2022-11-12T23:57:12.914Z,94751.56
